Time;durP1;ratioP1;P1;durP2;ratioP2;P2;SDS_P1;SDS_P2;PMS_P1;PMS_P2;Temp;Humidity;BMP_temperature;BMP_pressure;BME280_temperature;BME280_humidity;BME280_pressure;Samples;Min_cycle;Max_cycle;Signal;HPM_P1;HPM_P2
2022/05/12 00:01:58;;;;;;;2.47;0.90;;;;;;;23.09;41.50;101327.66;5035216;28;20033;-62
2022/05/12 00:04:25;;;;;;;3.97;1.08;;;;;;;23.08;41.42;101336.59;5035286;28;20493;-62
2022/05/12 00:06:50;;;;;;;2.33;0.90;;;;;;;23.06;41.48;101336.72;5034424;28;20032;-62
2022/05/12 00:09:16;;;;;;;3.50;1.02;;;;;;;23.06;41.51;101335.88;5035522;28;20101;-62
2022/05/12 00:11:41;;;;;;;4.03;1.10;;;;;;;23.06;41.45;101343.84;5035421;28;20109;-62
2022/05/12 00:14:09;;;;;;;2.37;1.00;;;;;;;23.06;41.61;101343.84;5034397;28;20053;-62
2022/05/12 00:16:35;;;;;;;3.47;0.98;;;;;;;23.04;41.64;101348.50;5035158;28;20045;-62
2022/05/12 00:19:00;;;;;;;3.33;1.00;;;;;;;23.02;41.58;101345.97;5035144;28;20342;-62
2022/05/12 00:21:25;;;;;;;3.20;1.00;;;;;;;23.03;41.47;101347.63;5034481;28;20090;-62
2022/05/12 00:23:57;;;;;;;3.70;0.90;;;;;;;23.01;41.54;101352.25;5035068;28;20469;-62
2022/05/12 00:26:27;;;;;;;3.25;1.05;;;;;;;23.00;41.28;101354.09;5035316;28;20082;-62
2022/05/12 00:28:53;;;;;;;2.50;0.80;;;;;;;22.99;41.25;101360.38;5034019;28;20026;-63
2022/05/12 00:31:19;;;;;;;3.13;0.93;;;;;;;22.99;41.53;101355.06;5035057;28;20199;-63
2022/05/12 00:33:44;;;;;;;4.22;1.02;;;;;;;23.00;41.32;101361.22;5033920;28;20488;-62
2022/05/12 00:36:09;;;;;;;3.22;1.05;;;;;;;22.97;41.23;101362.34;5033784;28;20489;-63
2022/05/12 00:38:35;;;;;;;2.85;0.98;;;;;;;22.97;41.11;101370.31;5035147;28;20113;-62
2022/05/12 00:41:00;;;;;;;5.18;1.20;;;;;;;22.96;41.28;101376.63;5033927;28;20029;-63
2022/05/12 00:43:42;;;;;;;2.30;0.68;;;;;;;22.95;41.42;101372.28;5034976;28;20022;-62
2022/05/12 00:46:11;;;;;;;2.25;0.75;;;;;;;22.93;41.24;101376.06;5034527;28;20079;-62
2022/05/12 00:48:40;;;;;;;3.63;0.95;;;;;;;22.92;41.07;101377.91;5034004;28;20025;-62
2022/05/12 00:51:07;;;;;;;2.05;0.75;;;;;;;22.91;41.42;101375.38;5034544;28;20025;-61
2022/05/12 00:53:34;;;;;;;3.60;0.93;;;;;;;22.91;41.44;101378.03;5034406;28;20465;-62
2022/05/12 00:56:04;;;;;;;2.88;0.90;;;;;;;22.91;41.30;101386.03;5033531;28;20164;-61
2022/05/12 00:58:32;;;;;;;1.63;0.70;;;;;;;22.91;41.37;101391.34;5034399;28;20017;-62
2022/05/12 01:00:57;;;;;;;2.78;0.70;;;;;;;22.89;41.21;101382.63;5034513;28;20492;-62
2022/05/12 01:03:25;;;;;;;1.57;0.73;;;;;;;22.89;41.14;101390.63;5033824;28;20029;-62
2022/05/12 01:05:54;;;;;;;2.83;0.98;;;;;;;22.89;41.27;101394.13;5033933;28;20638;-62
2022/05/12 01:08:21;;;;;;;3.60;1.00;;;;;;;22.89;41.21;101394.13;5034210;28;20029;-62
2022/05/12 01:10:52;;;;;;;3.22;0.80;;;;;;;22.88;41.06;101397.75;5033355;28;20026;-62
2022/05/12 01:13:18;;;;;;;2.92;0.90;;;;;;;22.87;41.02;101400.56;5034154;28;20367;-62
2022/05/12 01:15:55;;;;;;;2.65;1.10;;;;;;;22.86;41.12;101399.72;5033874;28;20034;-62
2022/05/12 01:18:21;;;;;;;3.15;0.73;;;;;;;22.86;41.35;101401.53;5033379;28;20588;-62
2022/05/12 01:20:48;;;;;;;2.42;0.90;;;;;;;22.84;41.10;101409.63;5034024;28;20052;-63
2022/05/12 01:23:27;;;;;;;3.42;0.80;;;;;;;22.83;41.02;101408.81;5033217;28;20381;-62
2022/05/12 01:26:05;;;;;;;3.30;1.30;;;;;;;22.83;41.08;101406.16;5033733;28;20119;-63
2022/05/12 01:28:37;;;;;;;2.40;0.70;;;;;;;22.82;41.12;101415.09;5034007;28;20057;-61
2022/05/12 01:31:04;;;;;;;2.95;1.00;;;;;;;22.79;40.86;101418.03;5032689;28;20036;-61
2022/05/12 01:33:30;;;;;;;3.88;1.20;;;;;;;22.77;40.89;101417.34;5033862;28;20501;-61
2022/05/12 01:35:58;;;;;;;2.40;0.90;;;;;;;22.78;40.91;101415.53;5033256;28;20029;-62
2022/05/12 01:38:24;;;;;;;3.42;0.98;;;;;;;22.77;40.92;101427.97;5033060;28;20025;-62
2022/05/12 01:40:50;;;;;;;3.58;0.90;;;;;;;22.76;41.18;101428.13;5033435;28;20083;-62
2022/05/12 01:43:15;;;;;;;1.67;0.70;;;;;;;22.74;40.87;101430.91;5033505;28;20022;-61
2022/05/12 01:45:42;;;;;;;2.92;1.23;;;;;;;22.72;40.83;101430.22;5032593;28;20059;-62
2022/05/12 01:48:09;;;;;;;2.85;0.80;;;;;;;22.73;40.98;101439.88;5033311;28;20381;-61
2022/05/12 01:50:36;;;;;;;3.08;0.80;;;;;;;22.70;41.17;101434.84;5033612;28;20033;-61
2022/05/12 01:53:04;;;;;;;3.13;1.10;;;;;;;22.70;41.20;101442.81;5032554;28;20026;-62
2022/05/12 01:55:30;;;;;;;3.65;1.00;;;;;;;22.70;41.02;101437.50;5033457;28;20022;-61
2022/05/12 01:57:57;;;;;;;3.42;1.08;;;;;;;22.69;41.15;101441.13;5032884;28;20021;-62
2022/05/12 02:00:26;;;;;;;2.63;0.88;;;;;;;22.65;40.83;101439.72;5032563;28;20083;-62
2022/05/12 02:02:52;;;;;;;3.60;0.80;;;;;;;22.67;41.12;101450.22;5032823;28;20075;-61
2022/05/12 02:05:18;;;;;;;2.92;1.10;;;;;;;22.65;40.98;101455.66;5033082;28;20485;-61
2022/05/12 02:07:46;;;;;;;3.08;0.90;;;;;;;22.65;41.12;101455.66;5032651;28;20144;-62
2022/05/12 02:10:14;;;;;;;2.92;0.80;;;;;;;22.65;41.09;101468.94;5032971;28;20422;-62
2022/05/12 02:12:42;;;;;;;3.88;0.95;;;;;;;22.64;41.09;101468.13;5032364;28;20021;-62
2022/05/12 02:15:10;;;;;;;3.25;0.80;;;;;;;22.62;40.95;101475.41;5032676;28;20412;-62
2022/05/12 02:17:36;;;;;;;3.75;0.93;;;;;;;22.62;40.84;101469.22;5032658;28;20493;-62
2022/05/12 02:20:01;;;;;;;4.93;1.17;;;;;;;22.60;40.98;101474.66;5032109;28;20037;-62
2022/05/12 02:22:30;;;;;;;4.90;1.05;;;;;;;22.58;40.64;101479.28;5032862;28;20820;-62
2022/05/12 02:24:55;;;;;;;3.95;1.02;;;;;;;22.58;40.94;101476.63;5032636;28;20120;-62
2022/05/12 02:27:20;;;;;;;2.80;0.80;;;;;;;22.57;40.79;101485.59;5032235;28;20116;-63
2022/05/12 02:29:46;;;;;;;2.60;0.80;;;;;;;22.55;41.09;101482.22;5032741;28;20461;-62
2022/05/12 02:32:14;;;;;;;3.45;1.00;;;;;;;22.55;40.78;101492.84;5032452;28;20412;-63
2022/05/12 02:34:39;;;;;;;3.85;1.13;;;;;;;22.55;40.65;101492.03;5032145;28;20086;-62
2022/05/12 02:37:08;;;;;;;4.10;1.33;;;;;;;22.53;41.03;101497.47;5032575;28;20096;-62
2022/05/12 02:39:37;;;;;;;3.05;1.02;;;;;;;22.52;40.89;101498.44;5032963;28;20115;-62
2022/05/12 02:42:04;;;;;;;3.63;1.10;;;;;;;22.53;40.92;101499.31;5031682;28;20029;-62
2022/05/12 02:44:32;;;;;;;3.35;1.10;;;;;;;22.51;41.08;101498.56;5032509;28;20112;-62
2022/05/12 02:46:58;;;;;;;2.35;0.75;;;;;;;22.51;40.87;101498.56;5032310;28;20025;-62
2022/05/12 02:49:23;;;;;;;3.95;1.05;;;;;;;22.49;40.90;101509.34;5031937;28;20033;-62
2022/05/12 02:51:55;;;;;;;2.92;0.95;;;;;;;22.49;41.02;101508.50;5032579;28;20108;-62
2022/05/12 02:54:20;;;;;;;2.72;0.95;;;;;;;22.48;40.97;101507.69;5032673;28;20072;-62
2022/05/12 02:56:46;;;;;;;2.88;0.80;;;;;;;22.46;41.04;101502.50;5032371;28;20021;-62
2022/05/12 02:59:11;;;;;;;2.85;1.05;;;;;;;22.48;40.41;101506.81;5036400;28;20022;-62
2022/05/12 03:01:37;;;;;;;4.35;0.90;;;;;;;22.46;40.71;101505.16;5036554;28;20032;-62
2022/05/12 03:04:02;;;;;;;3.17;0.90;;;;;;;22.45;40.64;101510.59;5036059;28;20083;-62
2022/05/12 03:06:27;;;;;;;3.92;1.02;;;;;;;22.44;40.80;101508.91;5036529;28;20026;-62
2022/05/12 03:08:56;;;;;;;3.03;1.10;;;;;;;22.43;40.87;101516.06;5035609;28;20036;-62
2022/05/12 03:11:21;;;;;;;4.45;1.10;;;;;;;22.42;40.89;101519.69;5036473;28;20086;-62
2022/05/12 03:13:49;;;;;;;6.40;1.20;;;;;;;22.42;40.74;101522.31;5036459;28;20025;-61
2022/05/12 03:16:16;;;;;;;2.25;0.90;;;;;;;22.43;40.63;101524.03;5035626;28;20111;-61
2022/05/12 03:18:44;;;;;;;2.63;0.82;;;;;;;22.42;40.66;101529.47;5036559;28;20026;-61
2022/05/12 03:21:09;;;;;;;4.32;1.13;;;;;;;22.39;40.61;101521.78;5036187;28;20159;-62
2022/05/12 03:23:35;;;;;;;4.68;1.25;;;;;;;22.41;41.03;101527.78;5035587;28;20104;-62
2022/05/12 03:26:00;;;;;;;3.90;1.15;;;;;;;22.40;40.34;101532.25;5035827;28;20029;-62
2022/05/12 03:28:26;;;;;;;4.55;1.10;;;;;;;22.40;40.60;101536.75;5036161;28;20022;-62
2022/05/12 03:30:51;;;;;;;3.55;1.10;;;;;;;22.40;40.55;101534.09;5034945;28;20475;-62
2022/05/12 03:33:16;;;;;;;3.47;1.35;;;;;;;22.39;40.42;101535.03;5036244;28;20036;-62
2022/05/12 03:35:45;;;;;;;4.25;1.20;;;;;;;22.37;40.57;101532.53;5035977;28;20029;-61
2022/05/12 03:38:11;;;;;;;4.13;1.05;;;;;;;22.37;40.43;101537.84;5034821;28;20484;-61
2022/05/12 03:40:36;;;;;;;3.35;0.93;;;;;;;22.37;40.55;101542.31;5035995;28;20104;-61
2022/05/12 03:43:02;;;;;;;3.07;1.00;;;;;;;22.35;40.55;101550.41;5035579;28;20025;-62
2022/05/12 03:45:36;;;;;;;4.25;1.30;;;;;;;22.34;40.68;101554.03;5035210;28;20297;-61
2022/05/12 03:48:01;;;;;;;4.30;1.23;;;;;;;22.34;40.50;101559.34;5035761;28;20018;-61
2022/05/12 03:50:28;;;;;;;4.03;1.20;;;;;;;22.33;40.72;101552.34;5035657;28;20021;-61
2022/05/12 03:52:55;;;;;;;4.75;1.40;;;;;;;22.32;40.38;101557.78;5034807;28;20060;-62
2022/05/12 03:55:25;;;;;;;3.83;1.05;;;;;;;22.31;40.56;101554.31;5035554;28;20036;-62
2022/05/12 03:57:53;;;;;;;4.93;1.92;;;;;;;22.31;40.75;101567.59;5035373;28;20018;-62
2022/05/12 04:00:25;;;;;;;6.22;1.63;;;;;;;22.31;40.56;101572.06;5035526;28;20132;-62
2022/05/12 04:02:51;;;;;;;4.70;1.63;;;;;;;22.29;40.84;101566.84;5035275;28;20017;-62
2022/05/12 04:05:18;;;;;;;4.53;1.35;;;;;;;22.30;40.66;101573.84;5034634;28;20644;-62
2022/05/12 04:07:44;;;;;;;4.55;1.33;;;;;;;22.30;40.54;101579.16;5035321;28;20031;-61
2022/05/12 04:10:11;;;;;;;4.40;1.38;;;;;;;22.28;40.99;101581.94;5034987;28;20562;-61
2022/05/12 04:12:37;;;;;;;4.50;1.30;;;;;;;22.28;40.68;101584.59;5034788;28;20064;-63
2022/05/12 04:15:02;;;;;;;3.78;1.40;;;;;;;22.27;40.55;101579.41;5035280;28;20053;-61
2022/05/12 04:17:31;;;;;;;4.45;1.40;;;;;;;22.27;40.77;101592.69;5035393;28;20186;-61
2022/05/12 04:20:03;;;;;;;5.00;1.20;;;;;;;22.27;40.60;101595.34;5035434;28;20060;-62
2022/05/12 04:22:30;;;;;;;5.00;2.35;;;;;;;22.26;40.69;101594.50;5035263;28;20050;-62
2022/05/12 04:24:56;;;;;;;4.43;1.30;;;;;;;22.26;40.68;101596.34;5034902;28;20035;-62
2022/05/12 04:27:21;;;;;;;3.03;1.25;;;;;;;22.27;40.68;101600.66;5034428;28;20482;-62
2022/05/12 04:29:47;;;;;;;4.15;1.30;;;;;;;22.27;40.59;101608.59;5035018;28;20500;-61
2022/05/12 04:32:14;;;;;;;3.90;1.60;;;;;;;22.25;40.80;101600.78;5034654;28;20374;-62
2022/05/12 04:37:26;;;;;;;6.82;1.83;;;;;;;22.26;41.09;101614.91;5035246;28;20087;-61
2022/05/12 04:39:51;;;;;;;3.95;2.00;;;;;;;22.25;40.95;101607.91;5034741;28;20060;-61
2022/05/12 04:42:19;;;;;;;4.40;1.50;;;;;;;22.25;40.82;101613.22;5034183;28;20049;-61
2022/05/12 04:44:45;;;;;;;4.35;1.73;;;;;;;22.24;41.09;101624.84;5034768;28;20045;-61
2022/05/12 04:47:10;;;;;;;5.53;1.67;;;;;;;22.25;40.99;101621.19;5033546;28;20469;-61
2022/05/12 04:49:35;;;;;;;5.83;1.60;;;;;;;22.24;40.79;101619.53;5034356;28;20035;-61
2022/05/12 04:52:02;;;;;;;4.80;1.63;;;;;;;22.24;40.86;101623.00;5034393;28;20365;-61
2022/05/12 04:54:30;;;;;;;4.10;1.63;;;;;;;22.24;40.72;101623.00;5033664;28;20351;-62
2022/05/12 04:56:56;;;;;;;4.75;1.80;;;;;;;22.24;40.90;101615.06;5034169;28;20021;-62
2022/05/12 04:59:21;;;;;;;5.97;1.75;;;;;;;22.25;40.86;101623.84;5034204;28;20029;-62
2022/05/12 05:01:46;;;;;;;5.63;1.90;;;;;;;22.26;40.85;101625.53;5033680;28;20030;-62
2022/05/12 05:04:21;;;;;;;4.63;1.60;;;;;;;22.26;41.06;101630.84;5033838;28;20025;-62
2022/05/12 05:06:46;;;;;;;4.43;1.90;;;;;;;22.26;40.88;101636.16;5034288;28;20022;-60
2022/05/12 05:09:11;;;;;;;5.85;1.85;;;;;;;22.25;41.07;101648.56;5033268;28;20389;-59
2022/05/12 05:11:39;;;;;;;6.00;2.63;;;;;;;22.21;41.27;101649.81;5034327;28;20520;-60
2022/05/12 05:14:05;;;;;;;5.55;2.22;;;;;;;22.16;41.64;101653.84;5033896;28;20267;-61
2022/05/12 05:16:31;;;;;;;6.25;2.08;;;;;;;22.17;42.07;101663.50;5032908;28;20037;-62
2022/05/12 05:18:56;;;;;;;5.63;2.00;;;;;;;22.18;42.24;101665.19;5033531;28;20030;-62
2022/05/12 05:21:30;;;;;;;5.05;1.70;;;;;;;22.20;42.09;101647.31;5033482;28;20373;-62
2022/05/12 05:23:59;;;;;;;6.05;2.10;;;;;;;22.22;41.95;101656.84;5032832;28;20029;-62
2022/05/12 05:26:24;;;;;;;7.57;2.53;;;;;;;22.26;42.11;101662.72;5033926;28;20128;-61
2022/05/12 05:28:49;;;;;;;5.63;2.70;;;;;;;22.26;42.24;101668.03;5033366;28;20161;-61
2022/05/12 05:31:14;;;;;;;4.43;1.80;;;;;;;22.25;42.22;101667.16;5032798;28;20275;-60
2022/05/12 05:33:40;;;;;;;6.20;2.08;;;;;;;22.27;42.30;101675.84;5033823;28;20777;-60
2022/05/12 05:36:05;;;;;;;4.43;2.05;;;;;;;22.30;42.11;101677.41;5033168;28;20075;-61
2022/05/12 05:38:31;;;;;;;7.43;2.30;;;;;;;22.33;42.33;101682.47;5032941;28;20032;-61
2022/05/12 05:40:56;;;;;;;5.43;2.17;;;;;;;22.33;42.41;101679.81;5033504;28;20029;-59
2022/05/12 05:43:22;;;;;;;9.07;2.50;;;;;;;22.33;42.30;101695.75;5033596;28;20067;-61
2022/05/12 05:45:47;;;;;;;6.18;2.50;;;;;;;22.33;42.62;101695.75;5032713;28;20291;-59
2022/05/12 05:48:12;;;;;;;6.78;2.95;;;;;;;22.32;42.72;101704.69;5033273;28;20025;-61
2022/05/12 05:53:28;;;;;;;5.22;2.10;;;;;;;22.33;42.69;101716.97;5033629;28;20079;-60
2022/05/12 05:55:56;;;;;;;5.35;2.40;;;;;;;22.35;43.11;101714.19;5032938;28;20040;-61
2022/05/12 05:58:22;;;;;;;6.10;3.10;;;;;;;22.36;43.00;101719.38;5032508;28;20076;-63
2022/05/12 06:00:48;;;;;;;6.32;2.38;;;;;;;22.39;43.04;101723.59;5033275;28;20029;-59
2022/05/12 06:03:14;;;;;;;6.38;2.50;;;;;;;22.37;43.22;101726.38;5033210;28;20105;-59
2022/05/12 06:05:39;;;;;;;6.35;2.22;;;;;;;22.39;43.00;101736.88;5032240;28;20125;-61
2022/05/12 06:08:08;;;;;;;6.28;2.40;;;;;;;22.39;43.04;101729.75;5032933;28;20053;-61
2022/05/12 06:10:33;;;;;;;8.50;2.40;;;;;;;22.42;43.12;101734.78;5033002;28;20026;-61
2022/05/12 06:12:59;;;;;;;3.97;1.75;;;;;;;22.44;43.16;101737.31;5031825;28;20482;-60
2022/05/12 06:15:26;;;;;;;8.07;2.53;;;;;;;22.42;43.21;101734.78;5032865;28;20036;-60
2022/05/12 06:17:51;;;;;;;5.93;2.67;;;;;;;22.45;43.33;101744.31;5032499;28;20091;-61
2022/05/12 06:20:17;;;;;;;8.05;2.53;;;;;;;22.46;43.25;101738.00;5032128;28;20104;-60
2022/05/12 06:22:43;;;;;;;10.77;2.58;;;;;;;22.46;43.37;101752.16;5032763;28;20032;-61
2022/05/12 06:25:11;;;;;;;6.85;2.13;;;;;;;22.49;43.09;101752.84;5032489;28;20029;-61
2022/05/12 06:27:36;;;;;;;7.82;2.20;;;;;;;22.50;43.28;101751.91;5031872;28;20026;-61
2022/05/12 06:30:05;;;;;;;6.88;2.70;;;;;;;22.50;43.48;101757.22;5032361;28;20040;-61
2022/05/12 06:32:31;;;;;;;7.32;2.60;;;;;;;22.50;43.42;101752.72;5032004;28;20080;-61
2022/05/12 06:34:56;;;;;;;6.63;2.53;;;;;;;22.51;43.40;101761.53;5031827;28;20037;-61
2022/05/12 06:37:22;;;;;;;5.65;2.60;;;;;;;22.51;43.18;101759.72;5032681;28;20021;-60
2022/05/12 06:39:48;;;;;;;5.65;2.30;;;;;;;22.52;43.20;101760.56;5031984;28;20542;-60
2022/05/12 06:42:13;;;;;;;5.13;2.20;;;;;;;22.52;43.21;101765.88;5032422;28;20466;-60
2022/05/12 06:44:41;;;;;;;6.65;2.33;;;;;;;22.53;43.54;101771.06;5032605;28;20128;-60
2022/05/12 06:47:08;;;;;;;5.45;2.20;;;;;;;22.54;43.02;101778.06;5031690;28;20072;-61
2022/05/12 06:49:34;;;;;;;7.03;2.60;;;;;;;22.54;43.26;101791.34;5032704;28;20079;-61
2022/05/12 06:52:05;;;;;;;9.38;2.42;;;;;;;22.53;43.33;101773.72;5032268;28;20120;-61
2022/05/12 06:54:34;;;;;;;5.30;2.50;;;;;;;22.53;43.68;101779.03;5032463;28;20385;-61
2022/05/12 06:57:00;;;;;;;7.93;2.45;;;;;;;22.53;43.58;101781.69;5032660;28;20026;-61
2022/05/12 06:59:26;;;;;;;6.50;2.67;;;;;;;22.56;43.59;101785.91;5033239;28;20036;-61
2022/05/12 07:01:54;;;;;;;8.45;2.72;;;;;;;22.59;43.85;101785.66;5031972;28;20400;-60
2022/05/12 07:04:20;;;;;;;5.18;2.42;;;;;;;22.63;43.56;101793.19;5032805;28;20033;-60
2022/05/12 07:06:46;;;;;;;8.32;2.90;;;;;;;22.69;43.41;101794.50;5033147;28;20037;-61
2022/05/12 07:09:11;;;;;;;6.80;3.05;;;;;;;22.73;43.46;101792.41;5031868;28;20112;-60
2022/05/12 07:11:36;;;;;;;5.50;2.75;;;;;;;22.79;43.34;101802.50;5032858;28;20104;-60
2022/05/12 07:14:05;;;;;;;6.43;2.80;;;;;;;22.83;43.03;101801.28;5032440;28;20025;-60
2022/05/12 07:16:30;;;;;;;5.75;2.47;;;;;;;22.86;42.98;101800.16;5031647;28;20125;-60
2022/05/12 07:18:56;;;;;;;6.85;2.70;;;;;;;22.88;43.01;101804.38;5033060;28;20108;-60
2022/05/12 07:26:50;;;;;;;;;;;;;;;22.93;42.36;101807.47;5032510;28;20041;-59
2022/05/12 07:29:24;;;;;;;5.28;2.85;;;;;;;22.88;42.57;101812.34;5031802;28;19917;-62
2022/05/12 07:31:50;;;;;;;8.35;3.35;;;;;;;22.87;42.72;101815.13;5032190;28;20474;-62
2022/05/12 07:34:16;;;;;;;6.00;2.50;;;;;;;22.88;42.77;101808.88;5037932;28;20034;-61
2022/05/12 07:36:47;;;;;;;7.75;3.10;;;;;;;22.92;42.64;101810.25;5032073;28;20031;-61
2022/05/12 07:39:16;;;;;;;7.72;3.00;;;;;;;22.94;42.63;101814.47;5032487;28;20022;-60
2022/05/12 07:41:42;;;;;;;7.75;3.38;;;;;;;22.99;42.75;101822.06;5032413;28;20484;-63
2022/05/12 07:44:13;;;;;;;8.80;2.67;;;;;;;22.99;42.82;101822.06;5033728;28;20038;-61
2022/05/12 07:46:39;;;;;;;6.25;2.50;;;;;;;23.04;42.50;101824.31;5035701;28;20080;-60
2022/05/12 07:49:04;;;;;;;6.30;2.60;;;;;;;23.05;42.57;101818.88;5035606;28;20029;-60
2022/05/12 07:51:29;;;;;;;8.40;2.50;;;;;;;23.06;42.39;101825.03;5034992;28;20472;-60
2022/05/12 07:53:55;;;;;;;5.25;2.47;;;;;;;23.06;42.43;101830.34;5035381;28;20032;-60
2022/05/12 07:56:23;;;;;;;6.00;2.42;;;;;;;23.08;42.62;101828.41;5035796;28;20033;-62
2022/05/12 07:58:50;;;;;;;5.45;2.35;;;;;;;23.07;42.56;101827.53;5034474;28;20056;-59
2022/05/12 08:01:17;;;;;;;6.10;2.35;;;;;;;23.06;42.73;101825.84;5035494;28;20082;-60
2022/05/12 08:03:44;;;;;;;7.90;3.08;;;;;;;23.08;42.53;101828.41;5036924;28;20041;-61
2022/05/12 08:06:09;;;;;;;9.55;3.15;;;;;;;23.09;42.26;101832.75;5035201;28;20037;-60
2022/05/12 08:08:35;;;;;;;8.63;2.90;;;;;;;23.10;41.88;101829.97;5036348;28;20036;-67
2022/05/12 08:11:02;;;;;;;7.35;3.38;;;;;;;23.11;42.14;101836.94;5035152;28;20262;-60
2022/05/12 08:13:27;;;;;;;7.72;3.08;;;;;;;23.15;41.41;101834.88;5034553;28;20388;-60
2022/05/12 08:15:53;;;;;;;6.97;3.08;;;;;;;23.17;41.82;101840.91;5034886;28;20057;-60
2022/05/12 08:18:21;;;;;;;8.38;2.80;;;;;;;23.18;41.77;101854.06;5034763;28;20059;-60
2022/05/12 08:20:47;;;;;;;6.53;2.63;;;;;;;23.20;42.04;101851.28;5035465;28;20029;-61
2022/05/12 08:23:13;;;;;;;5.65;2.42;;;;;;;23.20;41.92;101840.63;5034974;28;20021;-60
2022/05/12 08:25:39;;;;;;;5.22;2.38;;;;;;;23.20;41.89;101837.97;5034450;28;20029;-60
2022/05/12 08:28:05;;;;;;;5.45;2.70;;;;;;;23.20;42.20;101840.63;5034848;28;20049;-60
2022/05/12 08:30:31;;;;;;;5.05;2.50;;;;;;;23.21;42.02;101849.44;5035216;28;20037;-60
2022/05/12 08:32:57;;;;;;;7.93;2.80;;;;;;;23.20;41.68;101843.28;5034256;28;20022;-60
2022/05/12 08:35:23;;;;;;;4.70;2.45;;;;;;;23.21;41.52;101844.13;5035587;28;20060;-61
2022/05/12 08:37:54;;;;;;;5.90;2.30;;;;;;;23.21;41.63;101849.44;5034712;28;20020;-61
2022/05/12 08:40:43;;;;;;;6.35;2.75;;;;;;;23.20;41.50;101840.63;5034200;28;20029;-62
2022/05/12 08:43:16;;;;;;;5.30;2.30;;;;;;;23.20;41.67;101843.28;5035111;28;20125;-60
2022/05/12 08:45:43;;;;;;;6.20;2.53;;;;;;;23.19;41.95;101846.91;5035153;28;20065;-60
2022/05/12 08:48:11;;;;;;;5.55;2.67;;;;;;;23.19;41.55;101849.59;5033999;28;20030;-60
2022/05/12 08:50:37;;;;;;;7.35;2.40;;;;;;;23.19;41.82;101844.25;5035062;28;20061;-60
2022/05/12 08:53:09;;;;;;;4.75;2.47;;;;;;;23.17;41.75;101841.75;5035020;28;20032;-59
2022/05/12 08:55:59;;;;;;;7.28;2.58;;;;;;;23.17;41.67;101838.25;5033857;28;20108;-60
2022/05/12 08:58:35;;;;;;;5.03;2.50;;;;;;;23.18;41.50;101843.44;5034607;28;20049;-59
2022/05/12 09:01:28;;;;;;;6.60;2.30;;;;;;;23.18;41.59;101854.06;5033484;28;20025;-60
2022/05/12 09:04:30;;;;;;;13.52;2.15;;;;;;;23.17;41.59;101859.50;5030910;28;20108;-60
2022/05/12 09:07:12;;;;;;;5.55;2.50;;;;;;;23.16;41.57;101858.69;5033821;28;20500;-60
2022/05/12 09:10:17;;;;;;;4.95;2.38;;;;;;;23.15;41.56;101857.00;5033603;28;20025;-60
2022/05/12 09:12:50;;;;;;;5.45;2.60;;;;;;;23.14;41.60;101857.97;5034435;28;20073;-62
2022/05/12 09:15:31;;;;;;;5.68;2.38;;;;;;;23.14;41.45;101854.47;5033356;28;20060;-60
2022/05/12 09:17:57;;;;;;;5.40;2.65;;;;;;;23.14;41.33;101860.63;5033617;28;20053;-60
2022/05/12 09:20:25;;;;;;;5.15;2.53;;;;;;;23.13;41.41;101858.09;5034026;28;20480;-61
2022/05/12 09:22:50;;;;;;;4.50;2.38;;;;;;;23.13;41.14;101860.75;5032879;28;20423;-61
2022/05/12 09:25:32;;;;;;;4.32;2.40;;;;;;;23.12;41.34;101854.59;5033984;28;20026;-61
2022/05/12 09:27:58;;;;;;;5.10;2.47;;;;;;;23.12;41.08;101854.59;5033431;28;20500;-59
2022/05/12 09:30:33;;;;;;;5.53;2.53;;;;;;;23.11;41.02;101860.88;5033061;28;20147;-59
2022/05/12 09:32:59;;;;;;;4.65;2.40;;;;;;;23.11;41.00;101860.03;5033252;28;20025;-60
2022/05/12 09:35:28;;;;;;;5.63;2.70;;;;;;;23.10;40.86;101866.34;5033787;28;20392;-60
2022/05/12 09:37:53;;;;;;;6.78;2.97;;;;;;;23.07;41.16;101862.09;5032945;28;20373;-60
2022/05/12 09:40:19;;;;;;;4.82;2.58;;;;;;;23.08;41.15;101857.66;5033788;28;20029;-60
2022/05/12 09:42:56;;;;;;;4.60;2.60;;;;;;;23.07;41.21;101846.16;5033024;28;20028;-60
2022/05/12 09:45:34;;;;;;;4.15;2.45;;;;;;;23.07;40.85;101856.78;5033498;28;20045;-61
2022/05/12 09:48:22;;;;;;;4.72;2.25;;;;;;;23.07;41.18;101855.97;5033417;28;20071;-61
2022/05/12 09:50:49;;;;;;;4.65;2.50;;;;;;;23.07;40.81;101851.47;5033390;28;20029;-60
2022/05/12 09:53:26;;;;;;;5.85;2.50;;;;;;;23.06;40.86;101847.13;5033681;28;20083;-60
2022/05/12 09:56:00;;;;;;;4.78;2.40;;;;;;;23.06;40.98;101846.28;5033023;28;20409;-60
2022/05/12 09:58:34;;;;;;;3.97;2.25;;;;;;;23.06;40.53;101848.94;5032790;28;20021;-60
2022/05/12 10:01:11;;;;;;;5.40;2.83;;;;;;;23.05;40.76;101847.25;5033127;28;20113;-60
2022/05/12 10:09:52;;;;;;;4.78;2.58;;;;;;;23.04;40.66;101849.06;5033350;28;20087;-61
2022/05/12 10:12:32;;;;;;;4.60;2.35;;;;;;;23.02;40.07;101845.72;5032277;28;20028;-59
2022/05/12 10:15:10;;;;;;;6.07;2.28;;;;;;;23.01;40.24;101844.03;5033102;28;20060;-63
2022/05/12 10:17:59;;;;;;;4.60;2.30;;;;;;;23.00;40.29;101842.31;5033298;28;20084;-60
2022/05/12 10:20:27;;;;;;;6.43;2.90;;;;;;;23.00;40.51;101840.53;5033958;28;20496;-60
2022/05/12 10:23:22;;;;;;;4.38;1.95;;;;;;;22.99;40.46;101844.16;5032851;28;20017;-61
2022/05/12 10:25:57;;;;;;;;;;;;;;;23.00;40.22;101837.88;5035294;28;20043;-59
2022/05/12 10:28:53;;;;;;;4.68;1.90;;;;;;;23.03;40.17;101843.91;5033469;28;20300;-59
2022/05/12 10:31:46;;;;;;;6.07;2.28;;;;;;;23.07;40.39;101853.31;5032882;28;20026;-59
2022/05/12 10:34:33;;;;;;;5.78;2.92;;;;;;;23.12;40.31;101848.44;5032487;28;20029;-60
2022/05/12 10:37:31;;;;;;;7.47;2.85;;;;;;;23.12;40.32;101846.63;5032629;28;20041;-59
2022/05/12 10:40:43;;;;;;;7.78;2.75;;;;;;;23.12;40.18;101843.13;5032068;28;20028;-59
2022/05/12 10:43:14;;;;;;;7.10;2.60;;;;;;;23.13;40.63;101842.13;5010592;28;20141;-59
2022/05/12 10:46:21;;;;;;;7.05;3.17;;;;;;;23.15;39.89;101845.53;5010752;28;20263;-63
2022/05/12 10:49:20;;;;;;;7.20;2.97;;;;;;;23.17;39.89;101844.41;4998482;28;20370;-59
2022/05/12 10:52:24;;;;;;;7.00;2.65;;;;;;;23.21;39.54;101841.47;5032714;28;20029;-61
2022/05/12 10:55:22;;;;;;;7.35;2.78;;;;;;;23.25;39.91;101838.41;5009541;28;20037;-62
2022/05/12 10:58:19;;;;;;;7.47;2.55;;;;;;;23.28;39.83;101853.25;4968010;28;20113;-60
2022/05/12 11:01:12;;;;;;;6.68;2.55;;;;;;;23.27;39.84;101844.44;5029631;28;20095;-61
2022/05/12 11:03:46;;;;;;;5.63;2.35;;;;;;;23.28;39.73;101845.28;5032581;28;20032;-60
2022/05/12 11:06:17;;;;;;;11.85;2.78;;;;;;;23.29;39.72;101834.50;5032057;28;20025;-62
2022/05/12 11:09:15;;;;;;;5.45;2.55;;;;;;;23.30;39.82;101832.69;5031671;28;20063;-61
2022/05/12 11:11:45;;;;;;;8.98;3.00;;;;;;;23.29;39.82;101834.50;5032057;28;20125;-61
2022/05/12 11:14:38;;;;;;;7.22;2.67;;;;;;;23.30;39.92;101835.34;5031319;28;20466;-61
2022/05/12 11:17:09;;;;;;;6.47;2.65;;;;;;;23.29;39.84;101834.50;5031890;28;20053;-63
2022/05/12 11:19:36;;;;;;;6.15;2.60;;;;;;;23.28;39.75;101824.84;5035918;28;20112;-61
2022/05/12 11:22:07;;;;;;;6.47;2.30;;;;;;;23.28;39.75;101832.81;5035531;28;20025;-60
2022/05/12 11:24:49;;;;;;;6.88;2.15;;;;;;;23.28;39.67;101832.81;5036225;28;20025;-60
2022/05/12 11:27:17;;;;;;;6.57;2.50;;;;;;;23.27;39.81;101820.50;5036327;28;20029;-61
2022/05/12 11:30:07;;;;;;;6.63;2.47;;;;;;;23.27;39.55;101827.63;5035293;28;20493;-61
2022/05/12 11:33:03;;;;;;;7.15;2.38;;;;;;;23.27;39.52;101822.31;5036196;28;20033;-61
2022/05/12 11:35:51;;;;;;;6.47;2.30;;;;;;;23.26;39.91;101821.50;5035323;28;20477;-61
2022/05/12 11:38:36;;;;;;;8.13;2.22;;;;;;;23.26;39.86;101813.50;5035792;28;20128;-62
2022/05/12 11:41:01;;;;;;;;;;;;;;;23.28;39.72;101810.72;5036218;28;20099;-61
2022/05/12 11:46:44;;;;;;;7.28;2.47;;;;;;;23.26;40.13;101813.50;5036071;28;20075;-61
2022/05/12 11:49:40;;;;;;;4.63;2.30;;;;;;;23.26;39.86;101818.00;5034990;28;20029;-62
2022/05/12 11:52:34;;;;;;;6.03;2.70;;;;;;;23.26;40.02;101818.00;5033524;28;20041;-62
2022/05/12 11:55:23;;;;;;;6.32;2.40;;;;;;;23.24;39.94;101811.94;5035826;28;20073;-62
2022/05/12 11:58:09;;;;;;;5.13;1.95;;;;;;;23.24;40.24;101822.59;5034543;28;20033;-60
2022/05/12 12:00:37;;;;;;;6.03;2.10;;;;;;;23.23;40.11;101820.94;5035733;28;20075;-62
2022/05/12 12:03:14;;;;;;;4.47;2.05;;;;;;;23.22;40.02;101820.06;5035121;28;20374;-62